Time;durP1;ratioP1;P1;durP2;ratioP2;P2;SDS_P1;SDS_P2;PMS_P1;PMS_P2;Temp;Humidity;BMP_temperature;BMP_pressure;BME280_temperature;BME280_humidity;BME280_pressure;Samples;Min_cycle;Max_cycle;Signal;HPM_P1;HPM_P2
2022/04/23 00:02:05;;;;;;;16.30;7.30;;;;;;;38.91;41.80;100911.63;5050706;28;20446;-72
2022/04/23 00:04:31;;;;;;;11.50;5.77;;;;;;;38.88;41.83;100902.22;5050752;28;20421;-72
2022/04/23 00:06:58;;;;;;;19.83;5.50;;;;;;;38.78;42.11;100897.06;5050591;28;21000;-72
2022/04/23 00:09:25;;;;;;;11.10;5.63;;;;;;;38.92;41.80;100891.56;5052094;28;20895;-72
2022/04/23 00:11:55;;;;;;;14.43;6.20;;;;;;;39.02;41.50;100890.47;5051957;28;20403;-72
2022/04/23 00:14:22;;;;;;;12.17;5.40;;;;;;;39.07;41.32;100884.91;5050556;28;20469;-72
2022/04/23 00:16:51;;;;;;;10.13;6.10;;;;;;;39.04;41.14;100875.50;5051917;28;20899;-72
2022/04/23 00:19:18;;;;;;;10.93;5.10;;;;;;;39.01;41.36;100876.13;5050530;28;20465;-72
2022/04/23 00:21:45;;;;;;;10.17;6.70;;;;;;;38.88;41.58;100869.69;5050652;28;20433;-72
2022/04/23 00:24:11;;;;;;;13.80;7.27;;;;;;;38.93;41.53;100868.75;5050500;28;20510;-72
2022/04/23 00:26:37;;;;;;;10.33;5.73;;;;;;;39.02;41.69;100864.16;5050293;28;20814;-72
2022/04/23 00:29:04;;;;;;;12.03;6.60;;;;;;;38.77;42.05;100865.63;5051600;28;20455;-70
2022/04/23 00:31:30;;;;;;;11.17;4.67;;;;;;;38.70;41.89;100866.06;5050292;28;20419;-72
2022/04/23 00:33:56;;;;;;;9.77;5.80;;;;;;;38.83;42.30;100866.31;5050526;28;20966;-72
2022/04/23 00:36:23;;;;;;;18.17;6.40;;;;;;;38.74;42.28;100870.91;5050321;28;20954;-71
2022/04/23 00:38:52;;;;;;;14.77;5.97;;;;;;;38.72;42.46;100857.63;5050394;28;20451;-71
2022/04/23 00:44:05;;;;;;;11.70;5.80;;;;;;;38.76;41.63;100855.13;5050741;28;20429;-71
2022/04/23 00:46:32;;;;;;;17.47;4.53;;;;;;;38.89;41.43;100846.06;5050317;28;20490;-71
2022/04/23 00:48:58;;;;;;;11.57;6.93;;;;;;;38.72;41.54;100848.69;5050284;28;20419;-71
2022/04/23 00:51:27;;;;;;;16.03;5.73;;;;;;;38.70;41.63;100841.66;5050203;28;20418;-70
2022/04/23 00:53:54;;;;;;;13.17;5.17;;;;;;;38.36;42.50;100841.47;5033785;28;20422;-70
2022/04/23 00:56:22;;;;;;;11.57;4.40;;;;;;;38.52;42.06;100841.88;5051568;28;20397;-72
2022/04/23 00:58:49;;;;;;;8.43;5.27;;;;;;;38.65;41.82;100841.78;5050001;28;20459;-72
2022/04/23 01:01:15;;;;;;;9.37;4.33;;;;;;;38.64;41.65;100829.34;5050240;28;20991;-72
2022/04/23 01:03:45;;;;;;;10.70;5.20;;;;;;;38.77;41.34;100829.59;5050865;28;20427;-72
2022/04/23 01:06:12;;;;;;;9.80;5.67;;;;;;;38.65;41.82;100822.00;5054072;28;20811;-70
2022/04/23 01:08:38;;;;;;;11.47;4.60;;;;;;;38.80;41.21;100823.56;5055409;28;20383;-70
2022/04/23 01:11:05;;;;;;;12.83;4.53;;;;;;;38.79;41.16;100824.66;5053885;28;20426;-70
2022/04/23 01:13:32;;;;;;;10.80;4.70;;;;;;;38.79;41.04;100824.66;5053791;28;20476;-71
2022/04/23 01:15:59;;;;;;;10.83;6.90;;;;;;;38.92;40.96;100811.00;5055197;28;20486;-71
2022/04/23 01:18:26;;;;;;;10.67;5.17;;;;;;;38.86;41.03;100811.47;5053899;28;20466;-70
2022/04/23 01:20:54;;;;;;;10.17;4.47;;;;;;;38.71;41.41;100807.22;5053886;28;20414;-72
2022/04/23 01:23:20;;;;;;;16.27;6.40;;;;;;;38.85;41.22;100807.13;5053843;28;21003;-72
2022/04/23 01:25:49;;;;;;;9.63;4.93;;;;;;;38.69;41.16;100806.72;5055107;28;20444;-72
2022/04/23 01:28:19;;;;;;;15.87;5.33;;;;;;;38.65;41.86;100811.97;5053755;28;20406;-71
2022/04/23 01:30:47;;;;;;;14.50;5.97;;;;;;;38.51;42.29;100805.06;5053443;28;20557;-71
2022/04/23 01:33:13;;;;;;;13.50;5.43;;;;;;;38.66;42.34;100796.50;5053586;28;20411;-71
2022/04/23 01:35:39;;;;;;;12.30;5.80;;;;;;;38.62;42.04;100793.63;5054900;28;20415;-72
2022/04/23 01:38:05;;;;;;;8.70;4.87;;;;;;;38.48;42.40;100789.41;5054678;28;21051;-72
2022/04/23 01:40:31;;;;;;;18.37;6.20;;;;;;;38.49;42.44;100791.00;5054753;28;20943;-70
2022/04/23 01:42:58;;;;;;;12.47;5.70;;;;;;;38.48;42.29;100784.78;5053458;28;20441;-70
2022/04/23 01:45:25;;;;;;;10.63;6.67;;;;;;;38.57;42.12;100784.84;5053370;28;20460;-72
2022/04/23 01:47:51;;;;;;;9.70;4.87;;;;;;;38.54;42.15;100785.44;5054708;28;20970;-72
2022/04/23 01:50:17;;;;;;;12.00;6.23;;;;;;;38.59;42.29;100788.81;5053258;28;20410;-72
2022/04/23 01:52:43;;;;;;;11.87;5.27;;;;;;;38.68;42.39;100784.25;5053135;28;20787;-72
2022/04/23 01:55:10;;;;;;;10.20;4.50;;;;;;;38.69;42.20;100791.25;5053283;28;20413;-71
2022/04/23 01:57:37;;;;;;;14.53;5.60;;;;;;;38.57;42.35;100793.75;5052855;28;20466;-71
2022/04/23 02:00:10;;;;;;;15.87;7.57;;;;;;;38.68;42.43;100800.50;5054512;28;20387;-70
2022/04/23 02:02:39;;;;;;;8.83;5.10;;;;;;;38.72;42.24;100795.28;5053177;28;20430;-72
2022/04/23 02:05:07;;;;;;;13.80;5.63;;;;;;;38.58;42.61;100794.56;5053031;28;20464;-70
2022/04/23 02:07:38;;;;;;;15.70;6.03;;;;;;;38.63;42.41;100791.72;5053038;28;20501;-70
2022/04/23 02:10:24;;;;;;;8.60;5.87;;;;;;;38.55;42.56;100800.59;5036303;28;20505;-71
2022/04/23 02:12:51;;;;;;;18.43;5.77;;;;;;;38.65;42.26;100797.63;5053838;28;20434;-72
2022/04/23 02:15:18;;;;;;;9.30;6.10;;;;;;;38.70;42.09;100789.34;5052831;28;20419;-72
2022/04/23 02:17:45;;;;;;;23.73;7.40;;;;;;;38.77;42.10;100792.44;5052727;28;20539;-70
2022/04/23 02:20:15;;;;;;;7.80;4.67;;;;;;;38.65;42.35;100789.47;5052534;28;20466;-71
2022/04/23 02:22:44;;;;;;;12.10;7.23;;;;;;;38.59;42.54;100786.09;5054011;28;20403;-71
2022/04/23 02:25:11;;;;;;;11.30;5.53;;;;;;;38.69;42.32;100787.75;5052449;28;20438;-72
2022/04/23 02:27:46;;;;;;;12.63;6.07;;;;;;;38.54;43.08;100780.81;5053969;28;20395;-72
2022/04/23 02:30:13;;;;;;;20.27;5.80;;;;;;;38.62;42.96;100782.78;5053529;28;20516;-72
2022/04/23 02:32:42;;;;;;;14.23;6.20;;;;;;;38.69;42.82;100774.19;5053765;28;20391;-71
2022/04/23 02:35:10;;;;;;;13.90;5.70;;;;;;;38.65;42.86;100776.72;5019644;28;20970;-70
2022/04/23 02:37:36;;;;;;;9.33;4.33;;;;;;;38.62;42.95;100771.16;5052355;28;20446;-72
2022/04/23 02:40:07;;;;;;;25.13;6.63;;;;;;;38.72;42.75;100784.44;5052268;28;20620;-72
2022/04/23 02:42:36;;;;;;;14.10;5.67;;;;;;;38.73;42.89;100785.22;5052312;28;20418;-72
2022/04/23 02:45:03;;;;;;;8.80;5.97;;;;;;;38.83;42.37;100785.75;5052086;28;20454;-70
2022/04/23 02:47:42;;;;;;;20.97;6.60;;;;;;;38.85;42.25;100790.84;5053494;28;20387;-70
2022/04/23 02:50:09;;;;;;;9.77;6.20;;;;;;;38.70;42.55;100790.16;5052036;28;20443;-71
2022/04/23 02:52:37;;;;;;;11.10;4.90;;;;;;;38.80;42.07;100796.44;5052122;28;20407;-72
2022/04/23 02:55:05;;;;;;;10.33;5.10;;;;;;;38.74;42.56;100798.50;5052137;28;20429;-72
2022/04/23 02:57:31;;;;;;;13.57;6.77;;;;;;;38.66;42.84;100796.50;5053135;28;21004;-72
2022/04/23 02:59:58;;;;;;;11.90;7.43;;;;;;;38.78;42.56;100799.44;5051959;28;20589;-72
2022/04/23 03:02:24;;;;;;;10.10;4.40;;;;;;;38.85;42.77;100799.78;5051935;28;20423;-72
2022/04/23 03:04:50;;;;;;;12.33;5.93;;;;;;;38.86;42.30;100793.28;5053004;28;20438;-72
2022/04/23 03:07:17;;;;;;;13.93;5.63;;;;;;;38.88;42.38;100793.75;5051803;28;20480;-72
2022/04/23 03:09:43;;;;;;;16.30;6.10;;;;;;;38.93;42.42;100798.25;5053148;28;20402;-71
2022/04/23 03:12:09;;;;;;;12.23;6.83;;;;;;;38.73;42.40;100798.78;5052882;28;20484;-72
2022/04/23 03:14:35;;;;;;;6.60;4.33;;;;;;;38.84;42.38;100787.34;5051714;28;20415;-72
2022/04/23 03:17:02;;;;;;;12.23;7.00;;;;;;;38.87;42.54;100792.16;5051601;28;20414;-72
2022/04/23 03:19:28;;;;;;;9.40;4.60;;;;;;;38.90;42.04;100793.44;5051489;28;20497;-72
2022/04/23 03:21:56;;;;;;;12.33;5.97;;;;;;;38.84;42.23;100781.91;5051600;28;20431;-71
2022/04/23 03:24:22;;;;;;;12.43;4.57;;;;;;;38.87;42.23;100788.66;5051506;28;20430;-72
2022/04/23 03:26:48;;;;;;;14.63;5.97;;;;;;;38.81;42.10;100792.63;5050907;28;20496;-71
2022/04/23 03:29:15;;;;;;;10.60;6.17;;;;;;;38.81;42.53;100789.91;5051165;28;20463;-71
2022/04/23 03:31:41;;;;;;;9.73;5.33;;;;;;;38.79;42.74;100786.69;5052775;28;20406;-72
2022/04/23 03:34:07;;;;;;;11.13;5.03;;;;;;;38.80;42.67;100788.31;5051157;28;20509;-70
2022/04/23 03:36:34;;;;;;;12.27;5.03;;;;;;;38.73;42.75;100791.44;5052535;28;20779;-70
2022/04/23 03:39:00;;;;;;;22.33;6.70;;;;;;;38.82;42.58;100784.16;5051197;28;20454;-72
2022/04/23 03:41:26;;;;;;;11.33;6.17;;;;;;;38.85;42.24;100777.28;5050943;28;20494;-72
2022/04/23 03:43:53;;;;;;;11.33;5.00;;;;;;;38.85;41.82;100780.81;5052422;28;20472;-70
2022/04/23 03:46:19;;;;;;;13.80;7.33;;;;;;;38.77;42.00;100776.16;5051171;28;20457;-72
2022/04/23 03:48:45;;;;;;;12.43;5.03;;;;;;;38.85;41.87;100774.59;5050940;28;20407;-72
2022/04/23 03:51:11;;;;;;;15.33;5.83;;;;;;;38.84;41.72;100773.78;5051024;28;20494;-72
2022/04/23 03:53:37;;;;;;;10.43;4.53;;;;;;;38.84;41.73;100768.38;5050864;28;20414;-72
2022/04/23 03:56:05;;;;;;;13.20;6.13;;;;;;;38.79;41.70;100768.50;5050939;28;20411;-71
2022/04/23 03:58:31;;;;;;;12.40;5.60;;;;;;;38.84;41.86;100768.38;5050735;28;20545;-71
2022/04/23 04:00:57;;;;;;;12.90;4.60;;;;;;;38.65;41.82;100768.59;5050855;28;20442;-72
2022/04/23 04:03:24;;;;;;;15.87;5.27;;;;;;;38.64;42.10;100768.91;5052200;28;20494;-72
2022/04/23 04:05:50;;;;;;;17.00;5.97;;;;;;;38.72;42.21;100761.94;5050706;28;20433;-70
2022/04/23 04:08:16;;;;;;;9.07;5.13;;;;;;;38.28;43.07;100764.44;5034215;28;20442;-72
2022/04/23 04:10:42;;;;;;;10.50;4.13;;;;;;;38.54;42.48;100767.25;5050732;28;20811;-70
2022/04/23 04:13:09;;;;;;;9.30;4.63;;;;;;;38.42;43.01;100765.13;5050964;28;20427;-71
2022/04/23 04:15:36;;;;;;;9.40;5.17;;;;;;;38.42;42.95;100765.13;5050695;28;20806;-72
2022/04/23 04:18:02;;;;;;;8.00;4.63;;;;;;;38.54;42.59;100761.84;5033986;28;20846;-70
2022/04/23 04:20:32;;;;;;;7.93;5.00;;;;;;;38.57;42.03;100763.94;5051965;28;20407;-72
2022/04/23 04:22:58;;;;;;;13.00;5.50;;;;;;;38.43;42.50;100768.69;5051889;28;20688;-70
2022/04/23 04:25:24;;;;;;;16.37;4.57;;;;;;;38.41;42.44;100770.88;5050493;28;20414;-71
2022/04/23 04:27:50;;;;;;;12.17;4.90;;;;;;;38.53;42.33;100779.22;5050502;28;20419;-71
2022/04/23 04:30:17;;;;;;;16.40;7.00;;;;;;;38.64;42.39;100788.69;5050324;28;20466;-72
2022/04/23 04:32:43;;;;;;;10.97;5.80;;;;;;;38.69;42.22;100787.75;5033947;28;20419;-70
2022/04/23 04:35:11;;;;;;;10.83;5.40;;;;;;;38.68;42.30;100791.59;5050495;28;20410;-71
2022/04/23 04:37:37;;;;;;;13.50;5.10;;;;;;;38.70;42.41;100790.16;5050279;28;20450;-71
2022/04/23 04:40:05;;;;;;;16.33;6.20;;;;;;;38.58;42.81;100786.44;5053276;28;20849;-70
2022/04/23 04:42:31;;;;;;;12.17;6.20;;;;;;;38.61;42.74;100791.22;5054500;28;20421;-71
2022/04/23 04:44:57;;;;;;;9.40;4.30;;;;;;;38.63;42.55;100797.94;5054535;28;20552;-72
2022/04/23 04:47:23;;;;;;;14.17;5.80;;;;;;;38.52;42.81;100796.59;5054514;28;20442;-72
2022/04/23 04:49:49;;;;;;;9.53;4.70;;;;;;;38.40;42.61;100797.19;5054207;28;20849;-72
2022/04/23 04:52:16;;;;;;;11.53;5.40;;;;;;;38.48;42.71;100783.97;5054319;28;20418;-71
2022/04/23 04:54:42;;;;;;;12.33;4.20;;;;;;;38.26;42.93;100785.63;5055566;28;20402;-70
2022/04/23 04:57:08;;;;;;;11.47;7.67;;;;;;;38.42;42.89;100791.44;5055602;28;20391;-71
2022/04/23 04:59:37;;;;;;;10.20;7.13;;;;;;;37.89;44.54;100803.03;5054245;28;20484;-72
2022/04/23 05:02:04;;;;;;;15.20;8.23;;;;;;;38.11;43.98;100800.31;5054164;28;20422;-70
2022/04/23 05:04:30;;;;;;;21.27;10.07;;;;;;;37.94;44.50;100805.63;5054163;28;20501;-72
2022/04/23 05:06:56;;;;;;;20.53;12.57;;;;;;;37.89;44.35;100803.03;5054044;28;20425;-72
2022/04/23 05:09:22;;;;;;;21.63;11.63;;;;;;;38.15;44.24;100805.94;5054095;28;20472;-71
2022/04/23 05:11:48;;;;;;;19.17;12.27;;;;;;;38.22;43.98;100803.56;5054121;28;20552;-71
2022/04/23 05:14:16;;;;;;;19.00;11.13;;;;;;;38.11;44.23;100811.16;5053926;28;20798;-72
2022/04/23 05:16:43;;;;;;;15.70;12.23;;;;;;;38.01;44.84;100808.72;5054000;28;20419;-72
2022/04/23 05:19:10;;;;;;;18.47;12.70;;;;;;;37.97;44.65;100820.47;5053713;28;20469;-72
2022/04/23 05:21:36;;;;;;;17.53;12.10;;;;;;;38.07;44.62;100809.38;5053809;28;20414;-72
2022/04/23 05:24:02;;;;;;;27.87;16.23;;;;;;;38.10;44.58;100806.06;5053877;28;20411;-71
2022/04/23 05:26:28;;;;;;;20.43;14.67;;;;;;;38.01;44.20;100806.00;5053712;28;20903;-71
2022/04/23 05:28:55;;;;;;;24.30;14.73;;;;;;;37.99;44.56;100810.09;5053556;28;20812;-70
2022/04/23 05:31:21;;;;;;;27.60;19.30;;;;;;;38.08;44.39;100814.50;5053650;28;20414;-72
2022/04/23 05:33:47;;;;;;;35.30;22.37;;;;;;;38.15;44.03;100822.19;5053555;28;20418;-72
2022/04/23 05:36:13;;;;;;;31.33;18.80;;;;;;;38.12;44.28;100826.31;5053526;28;20407;-71
2022/04/23 05:38:39;;;;;;;33.13;20.20;;;;;;;38.05;44.37;100820.50;5053470;28;20500;-71
2022/04/23 05:41:05;;;;;;;33.13;21.70;;;;;;;38.14;44.29;100829.50;5055169;28;20410;-70
2022/04/23 05:43:32;;;;;;;36.93;23.70;;;;;;;37.86;44.92;100831.50;5053326;28;20435;-72
2022/04/23 05:46:00;;;;;;;39.20;26.20;;;;;;;37.81;45.26;100844.38;5054841;28;20395;-72
2022/04/23 05:48:27;;;;;;;32.13;23.57;;;;;;;37.92;44.93;100843.84;5053436;28;20406;-72
2022/04/23 05:50:53;;;;;;;37.37;26.30;;;;;;;37.91;45.25;100852.28;5054102;28;20525;-72
2022/04/23 05:53:19;;;;;;;31.40;22.00;;;;;;;37.84;45.03;100862.72;5053375;28;20433;-72
2022/04/23 05:55:46;;;;;;;28.97;20.80;;;;;;;37.81;45.57;100868.72;5053253;28;20761;-72
2022/04/23 05:58:12;;;;;;;32.60;17.73;;;;;;;37.92;44.94;100864.69;5053206;28;20456;-72
2022/04/23 06:00:38;;;;;;;24.83;18.90;;;;;;;37.78;44.99;100859.28;5053202;28;20422;-70
2022/04/23 06:03:05;;;;;;;34.00;20.03;;;;;;;37.77;45.13;100855.00;5053084;28;20838;-72
2022/04/23 06:05:31;;;;;;;29.50;18.40;;;;;;;37.84;45.02;100860.81;5053174;28;20451;-72
2022/04/23 06:07:57;;;;;;;31.00;22.67;;;;;;;37.92;45.37;100864.69;5053071;28;20403;-72
2022/04/23 06:10:23;;;;;;;36.07;22.50;;;;;;;37.79;45.30;100865.50;5059852;28;20438;-71
2022/04/23 06:12:49;;;;;;;36.70;23.87;;;;;;;37.82;45.75;100873.06;5047701;28;20419;-70
2022/04/23 06:15:15;;;;;;;33.73;23.23;;;;;;;37.70;45.57;100878.19;5064059;28;20532;-70
2022/04/23 06:17:42;;;;;;;42.10;24.20;;;;;;;37.87;45.43;100878.34;5063405;28;20466;-71
2022/04/23 06:20:09;;;;;;;35.60;23.33;;;;;;;37.91;45.41;100882.06;5062918;28;20469;-70
2022/04/23 06:22:35;;;;;;;32.87;25.23;;;;;;;37.95;45.40;100879.56;5061941;28;20410;-70
2022/04/23 06:25:01;;;;;;;40.87;28.33;;;;;;;38.00;45.42;100888.34;5052357;28;20430;-70
2022/04/23 06:27:30;;;;;;;50.47;26.23;;;;;;;37.94;45.37;100877.91;5071472;28;20483;-69
2022/04/23 06:29:56;;;;;;;34.10;22.20;;;;;;;37.92;45.52;100887.16;5072444;28;20539;-69
2022/04/23 06:32:22;;;;;;;35.10;23.53;;;;;;;38.03;45.09;100893.16;5072055;28;20457;-69
2022/04/23 06:34:48;;;;;;;28.50;24.00;;;;;;;37.92;45.10;100892.56;5057881;28;20423;-70
2022/04/23 06:37:18;;;;;;;35.97;23.37;;;;;;;37.61;45.91;100884.28;5056733;28;20419;-70
2022/04/23 06:39:45;;;;;;;39.00;24.50;;;;;;;37.82;45.66;100892.03;5069637;28;20418;-72
2022/04/23 06:42:11;;;;;;;44.67;28.50;;;;;;;37.91;45.09;100903.72;5072308;28;20422;-70
2022/04/23 06:44:37;;;;;;;48.30;33.10;;;;;;;37.97;45.30;100902.50;5072154;28;20492;-70
2022/04/23 06:47:04;;;;;;;32.17;27.47;;;;;;;38.04;45.06;100900.16;5072114;28;20478;-73
2022/04/23 06:49:30;;;;;;;50.17;34.67;;;;;;;37.92;45.41;100910.72;5072199;28;20421;-74
2022/04/23 06:51:56;;;;;;;45.90;33.03;;;;;;;38.01;45.30;100911.63;5062718;28;20421;-77
2022/04/23 06:54:24;;;;;;;63.50;42.77;;;;;;;38.10;44.92;100914.41;5073319;28;20426;-73
2022/04/23 06:56:50;;;;;;;76.67;56.50;;;;;;;37.94;45.29;100927.50;5071859;28;20449;-72
2022/04/23 06:59:16;;;;;;;83.10;53.53;;;;;;;38.05;45.11;100931.56;5061779;28;20469;-68
2022/04/23 07:01:42;;;;;;;55.47;36.50;;;;;;;38.05;45.33;100942.38;5057000;28;20996;-69
2022/04/23 07:04:09;;;;;;;31.60;28.00;;;;;;;38.28;44.86;100953.28;5066752;28;20441;-69
2022/04/23 07:06:35;;;;;;;32.40;22.70;;;;;;;38.28;44.60;100956.00;5058129;28;20445;-68
2022/04/23 07:09:03;;;;;;;29.13;21.83;;;;;;;38.45;44.25;100961.56;5071665;28;20421;-68
2022/04/23 07:11:30;;;;;;;26.97;18.43;;;;;;;38.51;43.92;100965.75;5072139;28;20486;-68
2022/04/23 07:13:56;;;;;;;31.37;20.77;;;;;;;38.51;44.28;100967.66;5069258;28;20847;-66
2022/04/23 07:16:22;;;;;;;29.37;19.27;;;;;;;38.42;44.29;100971.09;5053705;28;20437;-66
2022/04/23 07:18:52;;;;;;;34.97;19.90;;;;;;;38.58;43.92;100982.38;5069198;28;20465;-68
2022/04/23 07:21:20;;;;;;;36.63;21.67;;;;;;;38.69;43.71;100977.53;5069391;28;20949;-68
2022/04/23 07:24:05;;;;;;;30.40;20.60;;;;;;;38.61;43.52;100979.06;5052383;28;20426;-68
2022/04/23 07:26:34;;;;;;;34.23;23.47;;;;;;;38.42;44.11;100978.44;5056883;28;20500;-66
2022/04/23 07:29:06;;;;;;;30.73;20.60;;;;;;;38.59;43.66;100985.91;5064212;28;20917;-67
2022/04/23 07:31:33;;;;;;;29.87;24.47;;;;;;;38.38;43.95;100989.09;5055316;28;20939;-66
2022/04/23 07:39:28;;;;;;;35.10;18.50;;;;;;;38.37;44.39;101011.09;5059328;28;20559;-64
2022/04/23 07:41:55;;;;;;;25.73;19.57;;;;;;;38.59;43.75;101007.59;5058483;28;20492;-66
2022/04/23 07:44:24;;;;;;;28.97;20.07;;;;;;;38.84;43.05;101015.13;5064388;28;21034;-66
2022/04/23 07:46:51;;;;;;;25.07;17.77;;;;;;;38.78;43.36;101010.16;5063761;28;20406;-66
2022/04/23 07:49:18;;;;;;;30.20;18.33;;;;;;;38.75;43.67;101011.56;5058626;28;20431;-68
2022/04/23 07:51:47;;;;;;;29.10;21.40;;;;;;;38.68;43.81;101008.47;5057679;28;20462;-66
2022/04/23 07:54:15;;;;;;;27.67;16.90;;;;;;;38.69;43.48;101013.56;5057788;28;20900;-66
2022/04/23 07:56:41;;;;;;;23.67;18.40;;;;;;;38.47;44.18;101021.69;5062212;28;20418;-68
2022/04/23 07:59:08;;;;;;;24.97;18.13;;;;;;;38.57;43.94;101029.59;5056695;28;20470;-66
2022/04/23 08:01:35;;;;;;;22.00;18.20;;;;;;;38.59;44.01;101027.34;5065008;28;20458;-66
2022/04/23 08:04:03;;;;;;;30.30;20.13;;;;;;;38.58;44.17;101033.91;5060110;28;20484;-66
2022/04/23 08:06:32;;;;;;;31.03;18.60;;;;;;;38.77;43.86;101041.88;5070871;28;20429;-68
2022/04/23 08:08:58;;;;;;;22.47;15.13;;;;;;;38.95;43.09;101032.75;5045243;28;20489;-66
2022/04/23 08:11:24;;;;;;;23.37;16.47;;;;;;;38.79;43.48;101034.22;5062823;28;20530;-66
2022/04/23 08:13:50;;;;;;;35.50;14.87;;;;;;;39.02;43.03;101028.81;5068719;28;20426;-66
2022/04/23 08:16:17;;;;;;;15.70;8.70;;;;;;;38.85;43.02;101032.19;5070681;28;20434;-66
2022/04/23 08:18:44;;;;;;;17.77;10.67;;;;;;;39.03;42.86;101039.34;5070592;28;20534;-66
2022/04/23 08:21:10;;;;;;;13.80;8.73;;;;;;;38.38;44.07;101042.50;5050425;28;20426;-68
2022/04/23 08:23:36;;;;;;;20.93;10.80;;;;;;;38.45;43.95;101032.03;5051140;28;20439;-66
2022/04/23 08:26:05;;;;;;;15.03;10.93;;;;;;;38.77;43.84;101033.75;5068254;28;20960;-66
2022/04/23 08:31:17;;;;;;;10.30;6.30;;;;;;;38.82;43.03;101047.19;5062298;28;20426;-66
2022/04/23 08:33:58;;;;;;;12.80;8.10;;;;;;;38.85;43.27;101049.28;5050411;28;20411;-66
2022/04/23 08:36:29;;;;;;;22.57;10.87;;;;;;;38.58;43.93;101063.72;5050448;28;20971;-67
2022/04/23 08:38:57;;;;;;;15.33;11.30;;;;;;;38.91;43.31;101058.88;5034383;28;20843;-66
2022/04/23 08:41:28;;;;;;;23.77;13.70;;;;;;;38.43;44.58;101054.03;5052507;28;20431;-67
2022/04/23 08:44:05;;;;;;;19.47;11.80;;;;;;;38.66;43.63;101057.56;5055413;28;20505;-67
2022/04/23 08:46:39;;;;;;;16.30;10.03;;;;;;;38.62;43.72;101051.16;5070201;28;20445;-66
2022/04/23 08:49:14;;;;;;;20.77;10.00;;;;;;;38.64;43.74;101059.78;5034560;28;20840;-66
2022/04/23 08:51:43;;;;;;;18.00;7.87;;;;;;;38.70;43.84;101055.84;5050174;28;20472;-66
2022/04/23 08:54:11;;;;;;;17.50;6.30;;;;;;;39.00;43.11;101066.31;5050252;28;20426;-66
2022/04/23 08:56:40;;;;;;;13.50;7.87;;;;;;;39.17;42.29;101059.13;5033657;28;20517;-66
2022/04/23 08:59:07;;;;;;;14.97;7.33;;;;;;;38.77;43.70;101057.34;5050080;28;20593;-66
2022/04/23 09:01:35;;;;;;;13.90;6.00;;;;;;;38.68;43.77;101062.69;5050161;28;20423;-66
2022/04/23 09:04:04;;;;;;;10.53;5.63;;;;;;;38.81;43.59;101061.88;5049946;28;20533;-66
2022/04/23 09:06:34;;;;;;;8.00;5.60;;;;;;;39.05;43.07;101061.56;5049933;28;20460;-66
2022/04/23 09:09:20;;;;;;;15.87;6.83;;;;;;;39.15;42.71;101055.06;5033453;28;20451;-68
2022/04/23 09:11:58;;;;;;;14.63;7.50;;;;;;;39.25;42.70;101049.41;5050161;28;20427;-65
2022/04/23 09:14:31;;;;;;;14.63;8.30;;;;;;;39.29;42.82;101053.13;5051030;28;20965;-66
2022/04/23 09:25:37;;;;;;;11.50;5.50;;;;;;;39.51;42.01;101060.41;5072985;28;20459;-66
2022/04/23 09:28:23;;;;;;;13.50;5.87;;;;;;;39.31;42.13;101055.50;5073267;28;20433;-66
2022/04/23 09:30:52;;;;;;;10.47;6.30;;;;;;;39.41;42.18;101056.06;5073196;28;20542;-68
2022/04/23 09:33:21;;;;;;;14.70;5.70;;;;;;;39.53;41.82;101058.16;5063494;28;20433;-66
2022/04/23 09:36:02;;;;;;;9.67;6.80;;;;;;;39.52;42.15;101055.75;5065242;28;20414;-66
2022/04/23 09:38:29;;;;;;;16.70;6.27;;;;;;;39.59;42.33;101056.91;5061676;28;20985;-70
2022/04/23 09:41:15;;;;;;;11.00;5.83;;;;;;;39.59;41.35;101062.34;5062168;28;20745;-71
2022/04/23 09:43:43;;;;;;;15.40;6.90;;;;;;;39.66;41.58;101060.03;5063011;28;20878;-70
2022/04/23 09:46:09;;;;;;;10.50;5.40;;;;;;;39.76;41.14;101056.22;5073734;28;20429;-72
2022/04/23 09:48:38;;;;;;;14.13;6.27;;;;;;;39.71;41.87;101059.88;5073291;28;20442;-72
2022/04/23 09:51:05;;;;;;;11.83;5.70;;;;;;;39.65;41.91;101060.31;5059445;28;20525;-70
2022/04/23 09:53:32;;;;;;;13.20;5.43;;;;;;;39.34;42.34;101044.03;5061133;28;21009;-71
2022/04/23 09:55:59;;;;;;;9.80;5.77;;;;;;;39.42;42.03;101041.38;5062929;28;20431;-70
2022/04/23 09:58:29;;;;;;;14.07;6.37;;;;;;;39.60;41.63;101039.56;5061704;28;20652;-71
2022/04/23 10:00:56;;;;;;;15.80;6.33;;;;;;;39.56;41.49;101046.69;5062969;28;20475;-70
2022/04/23 10:03:33;;;;;;;14.00;6.00;;;;;;;39.64;41.57;101043.22;5065798;28;20484;-70
2022/04/23 10:06:04;;;;;;;15.40;6.00;;;;;;;39.58;42.04;101047.16;5067682;28;20417;-70
2022/04/23 10:08:34;;;;;;;15.90;5.27;;;;;;;39.51;41.65;101044.09;5063480;28;20458;-71
2022/04/23 10:11:54;;;;;;;19.73;5.70;;;;;;;39.60;41.81;101036.84;5063153;28;20428;-70
2022/04/23 10:14:22;;;;;;;11.20;7.33;;;;;;;39.67;41.97;101031.75;5035612;28;20560;-72
2022/04/23 10:16:49;;;;;;;12.30;5.13;;;;;;;39.77;41.43;101036.09;5052727;28;20536;-73
2022/04/23 10:19:16;;;;;;;11.43;6.53;;;;;;;39.70;40.90;101041.19;5050482;28;20508;-73
2022/04/23 10:21:53;;;;;;;11.13;5.13;;;;;;;39.51;41.67;101033.25;5057018;28;20462;-69
2022/04/23 10:24:32;;;;;;;12.23;6.13;;;;;;;39.54;41.76;101035.34;5051948;28;20414;-72
2022/04/23 10:27:10;;;;;;;14.87;7.13;;;;;;;39.65;41.15;101033.16;5051869;28;20426;-72
2022/04/23 10:29:37;;;;;;;13.47;5.37;;;;;;;39.55;41.03;101022.56;5054136;28;20542;-70
2022/04/23 10:32:09;;;;;;;8.10;5.17;;;;;;;39.61;41.52;101015.91;5045590;28;20441;-70
2022/04/23 10:34:36;;;;;;;9.37;5.40;;;;;;;39.54;41.33;101020.97;5038944;28;20438;-72
2022/04/23 10:37:25;;;;;;;9.43;4.37;;;;;;;39.41;41.78;101011.78;5052012;28;20453;-70
2022/04/23 10:39:51;;;;;;;13.30;5.50;;;;;;;39.62;41.18;101017.53;5051057;28;20544;-72
2022/04/23 10:42:25;;;;;;;9.30;5.20;;;;;;;39.68;40.95;101014.34;5060473;28;20527;-70
2022/04/23 10:44:55;;;;;;;8.87;5.00;;;;;;;39.44;41.54;101009.28;5062561;28;20453;-70
2022/04/23 10:47:33;;;;;;;11.83;5.27;;;;;;;39.52;41.44;101007.69;5072355;28;20430;-70
2022/04/23 10:50:26;;;;;;;17.43;6.83;;;;;;;39.58;41.74;100997.50;5068870;28;21020;-71
2022/04/23 10:52:55;;;;;;;12.33;6.43;;;;;;;39.79;41.20;101000.47;5072166;28;20932;-71
2022/04/23 10:55:22;;;;;;;13.93;5.70;;;;;;;39.69;41.18;100994.22;5073415;28;20921;-69
2022/04/23 10:57:51;;;;;;;8.90;4.93;;;;;;;39.63;41.10;100981.91;5071466;28;20457;-71
2022/04/23 11:00:20;;;;;;;12.33;5.97;;;;;;;39.46;41.16;100976.38;5039518;28;20434;-70
2022/04/23 11:02:56;;;;;;;11.70;5.70;;;;;;;39.39;41.59;100971.41;5050915;28;20425;-71
2022/04/23 11:14:39;;;;;;;8.43;5.20;;;;;;;39.41;41.44;100963.78;5053624;28;20421;-68
2022/04/23 11:17:06;;;;;;;7.87;4.63;;;;;;;39.23;41.75;100968.31;5053914;28;20398;-70
2022/04/23 11:19:33;;;;;;;18.60;6.70;;;;;;;39.32;42.17;100956.69;5064522;28;20466;-69
2022/04/23 11:21:59;;;;;;;13.77;4.80;;;;;;;39.49;41.76;100943.19;5051369;28;20423;-71
2022/04/23 11:24:27;;;;;;;10.77;4.83;;;;;;;39.48;41.50;100942.41;5052678;28;20424;-68
2022/04/23 11:26:55;;;;;;;8.03;4.47;;;;;;;39.52;41.25;100953.41;5051062;28;20451;-69
2022/04/23 11:29:21;;;;;;;9.27;5.93;;;;;;;39.55;41.66;100941.94;5056413;28;20461;-68
2022/04/23 11:31:56;;;;;;;10.60;5.03;;;;;;;39.46;41.58;100933.75;5051288;28;20497;-69
2022/04/23 11:34:23;;;;;;;8.77;4.80;;;;;;;39.64;41.39;100931.09;5050126;28;20448;-69
2022/04/23 11:36:49;;;;;;;14.93;5.70;;;;;;;39.42;41.57;100924.66;5050328;28;20423;-69
2022/04/23 11:39:16;;;;;;;11.50;5.93;;;;;;;39.60;41.40;100922.81;5050158;28;20438;-69
2022/04/23 11:41:47;;;;;;;8.27;4.00;;;;;;;39.55;41.49;100916.69;5049372;28;20454;-69
2022/04/23 11:44:16;;;;;;;10.73;5.00;;;;;;;39.45;41.39;100906.94;5047900;28;20466;-69
2022/04/23 11:46:46;;;;;;;8.40;4.40;;;;;;;39.46;42.02;100908.53;5049192;28;20817;-69
2022/04/23 11:49:30;;;;;;;12.20;5.77;;;;;;;39.48;41.47;100906.31;5033143;28;20419;-68
2022/04/23 11:52:05;;;;;;;11.10;6.00;;;;;;;39.49;41.72;100914.13;5049310;28;20838;-68